sensor_id;sensor_type;location;lat;lon;timestamp;pressure;altitude;pressure_sealevel;temperature;humidity
64086;BME280;50333;47.436;21.390;2023-02-01T00:01:12;100505.69;;;4.38;70.28
64086;BME280;50333;47.436;21.390;2023-02-01T00:03:40;100507.69;;;4.55;69.55
64086;BME280;50333;47.436;21.390;2023-02-01T00:06:08;100502.22;;;4.63;69.20
64086;BME280;50333;47.436;21.390;2023-02-01T00:08:36;100502.03;;;4.27;70.68
64086;BME280;50333;47.436;21.390;2023-02-01T00:11:09;100499.84;;;4.61;69.45
64086;BME280;50333;47.436;21.390;2023-02-01T00:13:40;100503.28;;;4.73;68.77
64086;BME280;50333;47.436;21.390;2023-02-01T00:16:23;100505.81;;;4.43;69.94
64086;BME280;50333;47.436;21.390;2023-02-01T00:19:00;100507.03;;;4.59;69.20
64086;BME280;50333;47.436;21.390;2023-02-01T00:21:29;100513.56;;;4.62;69.23
64086;BME280;50333;47.436;21.390;2023-02-01T00:23:57;100524.31;;;4.40;69.89
64086;BME280;50333;47.436;21.390;2023-02-01T00:26:31;100524.25;;;4.10;70.77
64086;BME280;50333;47.436;21.390;2023-02-01T00:29:01;100531.91;;;4.35;70.57
64086;BME280;50333;47.436;21.390;2023-02-01T00:31:29;100534.00;;;4.26;70.63
64086;BME280;50333;47.436;21.390;2023-02-01T00:33:57;100525.88;;;4.23;71.13
64086;BME280;50333;47.436;21.390;2023-02-01T00:36:25;100511.94;;;4.30;70.94
64086;BME280;50333;47.436;21.390;2023-02-01T00:38:53;100499.38;;;4.15;71.20
64086;BME280;50333;47.436;21.390;2023-02-01T00:41:21;100502.31;;;4.19;71.44
64086;BME280;50333;47.436;21.390;2023-02-01T00:43:50;100498.22;;;4.30;71.20
64086;BME280;50333;47.436;21.390;2023-02-01T00:46:19;100503.84;;;4.27;71.68
64086;BME280;50333;47.436;21.390;2023-02-01T00:48:48;100506.41;;;4.08;72.17
64086;BME280;50333;47.436;21.390;2023-02-01T00:51:20;100521.09;;;4.26;71.76
64086;BME280;50333;47.436;21.390;2023-02-01T00:53:48;100513.41;;;4.20;72.01
64086;BME280;50333;47.436;21.390;2023-02-01T00:56:17;100515.41;;;4.18;71.93
64086;BME280;50333;47.436;21.390;2023-02-01T00:58:44;100517.19;;;3.99;72.97
64086;BME280;50333;47.436;21.390;2023-02-01T01:03:50;100528.87;;;4.01;73.31
64086;BME280;50333;47.436;21.390;2023-02-01T01:06:27;100516.13;;;4.06;72.98
64086;BME280;50333;47.436;21.390;2023-02-01T01:08:57;100512.63;;;4.19;72.31
64086;BME280;50333;47.436;21.390;2023-02-01T01:11:27;100500.91;;;4.23;72.51
64086;BME280;50333;47.436;21.390;2023-02-01T01:13:57;100494.63;;;3.94;73.24
64086;BME280;50333;47.436;21.390;2023-02-01T01:16:27;100492.41;;;4.16;73.13
64086;BME280;50333;47.436;21.390;2023-02-01T01:18:57;100467.41;;;4.17;72.89
64086;BME280;50333;47.436;21.390;2023-02-01T01:21:26;100474.72;;;4.20;72.61
64086;BME280;50333;47.436;21.390;2023-02-01T01:23:55;100475.44;;;4.27;72.28
64086;BME280;50333;47.436;21.390;2023-02-01T01:26:28;100477.87;;;4.22;72.95
64086;BME280;50333;47.436;21.390;2023-02-01T01:28:58;100475.44;;;4.27;72.87
64086;BME280;50333;47.436;21.390;2023-02-01T01:31:27;100481.97;;;4.29;72.72
64086;BME280;50333;47.436;21.390;2023-02-01T01:33:57;100475.59;;;4.32;72.54
64086;BME280;50333;47.436;21.390;2023-02-01T01:36:27;100473.00;;;4.13;73.22
64086;BME280;50333;47.436;21.390;2023-02-01T01:38:55;100473.41;;;4.47;72.49
64086;BME280;50333;47.436;21.390;2023-02-01T01:41:26;100471.22;;;3.95;73.32
64086;BME280;50333;47.436;21.390;2023-02-01T01:44:04;100469.91;;;4.05;73.98
64086;BME280;50333;47.436;21.390;2023-02-01T01:46:37;100449.56;;;4.15;73.67
64086;BME280;50333;47.436;21.390;2023-02-01T01:51:49;100442.53;;;4.22;73.16
64086;BME280;50333;47.436;21.390;2023-02-01T01:54:26;100440.09;;;4.09;73.81
64086;BME280;50333;47.436;21.390;2023-02-01T01:57:02;100436.38;;;4.05;73.81
64086;BME280;50333;47.436;21.390;2023-02-01T01:59:36;100441.31;;;4.06;74.42
64086;BME280;50333;47.436;21.390;2023-02-01T02:02:06;100437.31;;;3.92;74.55
64086;BME280;50333;47.436;21.390;2023-02-01T02:04:34;100419.38;;;3.97;74.72
64086;BME280;50333;47.436;21.390;2023-02-01T02:07:05;100421.91;;;4.04;74.90
64086;BME280;50333;47.436;21.390;2023-02-01T02:09:36;100417.97;;;4.01;74.85
64086;BME280;50333;47.436;21.390;2023-02-01T02:12:05;100420.53;;;4.01;74.94
64086;BME280;50333;47.436;21.390;2023-02-01T02:14:33;100402.13;;;3.97;75.37
64086;BME280;50333;47.436;21.390;2023-02-01T02:28:00;100399.13;;;4.01;75.62
64086;BME280;50333;47.436;21.390;2023-02-01T02:31:09;100412.34;;;3.67;76.26
64086;BME280;50333;47.436;21.390;2023-02-01T02:34:02;100408.44;;;4.02;75.36
64086;BME280;50333;47.436;21.390;2023-02-01T02:39:54;100405.63;;;4.22;74.91
64086;BME280;50333;47.436;21.390;2023-02-01T02:42:31;100393.72;;;4.21;74.61
64086;BME280;50333;47.436;21.390;2023-02-01T02:45:33;100402.59;;;4.25;74.16
64086;BME280;50333;47.436;21.390;2023-02-01T02:48:36;100399.78;;;3.96;75.84
64086;BME280;50333;47.436;21.390;2023-02-01T02:51:21;100400.13;;;4.00;75.02
64086;BME280;50333;47.436;21.390;2023-02-01T02:54:16;100391.50;;;4.06;75.55
64086;BME280;50333;47.436;21.390;2023-02-01T02:57:07;100386.47;;;4.11;75.19
64086;BME280;50333;47.436;21.390;2023-02-01T02:59:57;100392.94;;;4.02;75.51
64086;BME280;50333;47.436;21.390;2023-02-01T03:02:46;100383.75;;;4.06;74.97
64086;BME280;50333;47.436;21.390;2023-02-01T03:05:40;100380.91;;;4.14;74.98
64086;BME280;50333;47.436;21.390;2023-02-01T03:21:23;100363.03;;;4.31;72.98
64086;BME280;50333;47.436;21.390;2023-02-01T03:23:53;100364.91;;;4.54;72.78
64086;BME280;50333;47.436;21.390;2023-02-01T03:26:26;100371.47;;;4.38;72.91
64086;BME280;50333;47.436;21.390;2023-02-01T03:29:14;100371.16;;;4.46;72.89
64086;BME280;50333;47.436;21.390;2023-02-01T03:31:44;100365.31;;;4.39;73.07
64086;BME280;50333;47.436;21.390;2023-02-01T03:34:12;100366.66;;;4.42;72.99
64086;BME280;50333;47.436;21.390;2023-02-01T03:36:50;100362.13;;;4.37;72.84
64086;BME280;50333;47.436;21.390;2023-02-01T03:42:22;100337.97;;;4.50;72.54
64086;BME280;50333;47.436;21.390;2023-02-01T03:47:30;100356.16;;;4.55;72.27
64086;BME280;50333;47.436;21.390;2023-02-01T03:50:10;100363.00;;;4.61;72.02
64086;BME280;50333;47.436;21.390;2023-02-01T03:53:10;100363.81;;;4.62;71.85
64086;BME280;50333;47.436;21.390;2023-02-01T03:55:40;100371.34;;;4.63;71.75
64086;BME280;50333;47.436;21.390;2023-02-01T03:58:16;100380.66;;;4.34;72.29
64086;BME280;50333;47.436;21.390;2023-02-01T04:00:59;100388.00;;;4.49;72.25
64086;BME280;50333;47.436;21.390;2023-02-01T04:03:28;100371.59;;;4.43;72.37
64086;BME280;50333;47.436;21.390;2023-02-01T04:05:56;100366.56;;;4.48;72.30
64086;BME280;50333;47.436;21.390;2023-02-01T04:08:24;100370.22;;;4.29;72.33
64086;BME280;50333;47.436;21.390;2023-02-01T04:10:52;100367.62;;;4.29;72.38
64086;BME280;50333;47.436;21.390;2023-02-01T04:13:20;100371.47;;;4.38;72.24
64086;BME280;50333;47.436;21.390;2023-02-01T04:15:48;100380.81;;;4.51;71.56
64086;BME280;50333;47.436;21.390;2023-02-01T04:18:17;100383.88;;;4.60;71.48
64086;BME280;50333;47.436;21.390;2023-02-01T04:20:45;100380.69;;;4.46;71.49
64086;BME280;50333;47.436;21.390;2023-02-01T04:23:13;100379.03;;;4.51;71.74
64086;BME280;50333;47.436;21.390;2023-02-01T04:25:43;100384.59;;;4.67;70.98
64086;BME280;50333;47.436;21.390;2023-02-01T04:28:10;100373.75;;;4.46;70.98
64086;BME280;50333;47.436;21.390;2023-02-01T04:30:38;100370.19;;;4.59;71.21
64086;BME280;50333;47.436;21.390;2023-02-01T04:33:06;100369.97;;;4.61;71.11
64086;BME280;50333;47.436;21.390;2023-02-01T04:35:34;100369.94;;;4.19;71.61
64086;BME280;50333;47.436;21.390;2023-02-01T04:38:02;100374.44;;;4.53;71.14
64086;BME280;50333;47.436;21.390;2023-02-01T04:40:30;100380.72;;;4.58;70.99
64086;BME280;50333;47.436;21.390;2023-02-01T04:43:00;100383.00;;;4.66;70.47
64086;BME280;50333;47.436;21.390;2023-02-01T04:45:28;100376.50;;;4.63;70.51
64086;BME280;50333;47.436;21.390;2023-02-01T04:47:56;100384.78;;;4.53;70.22
64086;BME280;50333;47.436;21.390;2023-02-01T04:50:23;100392.03;;;4.14;71.37
64086;BME280;50333;47.436;21.390;2023-02-01T04:52:51;100381.28;;;4.48;70.39
64086;BME280;50333;47.436;21.390;2023-02-01T04:55:19;100384.97;;;4.52;70.07
64086;BME280;50333;47.436;21.390;2023-02-01T04:57:47;100389.97;;;4.35;70.22
64086;BME280;50333;47.436;21.390;2023-02-01T05:00:15;100382.91;;;4.30;70.70
64086;BME280;50333;47.436;21.390;2023-02-01T05:02:43;100379.72;;;4.59;69.89
64086;BME280;50333;47.436;21.390;2023-02-01T05:05:10;100380.47;;;4.17;70.47
64086;BME280;50333;47.436;21.390;2023-02-01T05:07:38;100380.31;;;4.61;69.71
64086;BME280;50333;47.436;21.390;2023-02-01T05:10:06;100384.81;;;4.65;69.37
64086;BME280;50333;47.436;21.390;2023-02-01T05:12:34;100388.31;;;4.71;69.11
64086;BME280;50333;47.436;21.390;2023-02-01T05:15:21;100391.75;;;4.65;69.24
64086;BME280;50333;47.436;21.390;2023-02-01T05:17:48;100378.16;;;4.58;69.37
64086;BME280;50333;47.436;21.390;2023-02-01T05:20:16;100383.25;;;4.46;69.77
64086;BME280;50333;47.436;21.390;2023-02-01T05:22:44;100384.97;;;4.52;69.75
64086;BME280;50333;47.436;21.390;2023-02-01T05:25:12;100382.91;;;4.30;70.10
64086;BME280;50333;47.436;21.390;2023-02-01T05:27:40;100391.16;;;4.51;69.89
64086;BME280;50333;47.436;21.390;2023-02-01T05:30:08;100392.47;;;4.42;70.31
64086;BME280;50333;47.436;21.390;2023-02-01T05:32:36;100395.25;;;4.40;70.21
64086;BME280;50333;47.436;21.390;2023-02-01T05:35:03;100393.50;;;4.41;70.17
64086;BME280;50333;47.436;21.390;2023-02-01T05:37:32;100392.00;;;4.63;69.35
64086;BME280;50333;47.436;21.390;2023-02-01T05:39:59;100396.56;;;4.61;69.28
64086;BME280;50333;47.436;21.390;2023-02-01T05:42:27;100395.91;;;4.66;69.15
64086;BME280;50333;47.436;21.390;2023-02-01T05:44:55;100389.97;;;4.35;70.19
64086;BME280;50333;47.436;21.390;2023-02-01T05:47:22;100397.91;;;4.52;69.37
64086;BME280;50333;47.436;21.390;2023-02-01T05:49:50;100395.56;;;4.62;69.44
64086;BME280;50333;47.436;21.390;2023-02-01T05:52:18;100396.97;;;4.46;69.50
64086;BME280;50333;47.436;21.390;2023-02-01T05:54:46;100395.19;;;4.28;70.13
64086;BME280;50333;47.436;21.390;2023-02-01T05:57:15;100400.84;;;4.37;70.24
64086;BME280;50333;47.436;21.390;2023-02-01T05:59:43;100403.19;;;4.27;70.26
64086;BME280;50333;47.436;21.390;2023-02-01T06:02:16;100404.72;;;3.97;70.62
64086;BME280;50333;47.436;21.390;2023-02-01T06:04:44;100413.06;;;4.30;70.37
64086;BME280;50333;47.436;21.390;2023-02-01T06:07:11;100411.56;;;4.41;69.69
64086;BME280;50333;47.436;21.390;2023-02-01T06:09:39;100406.47;;;4.34;70.01
64086;BME280;50333;47.436;21.390;2023-02-01T06:12:07;100405.56;;;3.91;70.55
64086;BME280;50333;47.436;21.390;2023-02-01T06:14:35;100417.31;;;4.06;70.36
64086;BME280;50333;47.436;21.390;2023-02-01T06:17:04;100412.22;;;4.18;70.35
64086;BME280;50333;47.436;21.390;2023-02-01T06:19:33;100416.09;;;4.27;69.95
64086;BME280;50333;47.436;21.390;2023-02-01T06:22:01;100417.41;;;3.99;70.71
64086;BME280;50333;47.436;21.390;2023-02-01T06:24:29;100417.44;;;4.29;69.69
64086;BME280;50333;47.436;21.390;2023-02-01T06:26:57;100415.34;;;4.20;69.78
64086;BME280;50333;47.436;21.390;2023-02-01T06:29:24;100415.25;;;3.96;70.53
64086;BME280;50333;47.436;21.390;2023-02-01T06:31:53;100412.75;;;4.08;70.30
64086;BME280;50333;47.436;21.390;2023-02-01T06:34:21;100415.75;;;4.23;70.78
64086;BME280;50333;47.436;21.390;2023-02-01T06:36:50;100417.56;;;4.53;68.85
64086;BME280;50333;47.436;21.390;2023-02-01T06:39:18;100420.47;;;4.57;68.50
64086;BME280;50333;47.436;21.390;2023-02-01T06:41:47;100428.56;;;4.60;68.29
64086;BME280;50333;47.436;21.390;2023-02-01T06:44:16;100424.50;;;4.52;68.70
64086;BME280;50333;47.436;21.390;2023-02-01T06:46:44;100430.19;;;4.43;69.07
64086;BME280;50333;47.436;21.390;2023-02-01T06:49:12;100422.16;;;4.63;68.38
64086;BME280;50333;47.436;21.390;2023-02-01T06:51:40;100433.78;;;4.72;67.94
64086;BME280;50333;47.436;21.390;2023-02-01T06:54:08;100432.63;;;4.68;68.12
64086;BME280;50333;47.436;21.390;2023-02-01T06:56:35;100431.16;;;4.60;67.74
64086;BME280;50333;47.436;21.390;2023-02-01T06:59:05;100442.19;;;4.67;68.22
64086;BME280;50333;47.436;21.390;2023-02-01T07:01:33;100438.53;;;4.87;67.73
64086;BME280;50333;47.436;21.390;2023-02-01T07:04:01;100434.81;;;4.83;67.74
64086;BME280;50333;47.436;21.390;2023-02-01T07:06:29;100447.06;;;4.87;67.79
64086;BME280;50333;47.436;21.390;2023-02-01T07:08:57;100444.69;;;4.74;67.75
64086;BME280;50333;47.436;21.390;2023-02-01T07:11:25;100442.41;;;5.08;67.53
64086;BME280;50333;47.436;21.390;2023-02-01T07:13:54;100445.25;;;5.30;66.77
64086;BME280;50333;47.436;21.390;2023-02-01T07:16:22;100453.03;;;5.42;66.35
64086;BME280;50333;47.436;21.390;2023-02-01T07:18:52;100447.50;;;5.74;65.49
64086;BME280;50333;47.436;21.390;2023-02-01T07:21:20;100444.81;;;5.69;65.57
64086;BME280;50333;47.436;21.390;2023-02-01T07:23:47;100452.22;;;6.00;64.85
64086;BME280;50333;47.436;21.390;2023-02-01T07:26:15;100455.13;;;6.28;63.97
64086;BME280;50333;47.436;21.390;2023-02-01T07:28:44;100457.66;;;6.39;63.60
64086;BME280;50333;47.436;21.390;2023-02-01T07:31:17;100457.87;;;6.50;62.90
64086;BME280;50333;47.436;21.390;2023-02-01T07:33:49;100461.13;;;6.74;62.41
64086;BME280;50333;47.436;21.390;2023-02-01T07:36:19;100453.25;;;6.69;62.65
64086;BME280;50333;47.436;21.390;2023-02-01T07:38:47;100465.62;;;6.78;62.27
64086;BME280;50333;47.436;21.390;2023-02-01T07:41:15;100475.13;;;6.73;62.08
64086;BME280;50333;47.436;21.390;2023-02-01T07:43:43;100464.84;;;6.78;61.41
64086;BME280;50333;47.436;21.390;2023-02-01T07:46:12;100474.34;;;6.89;61.35
64086;BME280;50333;47.436;21.390;2023-02-01T07:48:40;100468.81;;;6.97;61.15
64086;BME280;50333;47.436;21.390;2023-02-01T07:51:11;100462.38;;;6.71;61.60
64086;BME280;50333;47.436;21.390;2023-02-01T07:53:40;100455.22;;;6.90;61.39
64086;BME280;50333;47.436;21.390;2023-02-01T07:56:14;100462.84;;;6.97;61.41
64086;BME280;50333;47.436;21.390;2023-02-01T07:58:42;100457.94;;;6.84;61.69
64086;BME280;50333;47.436;21.390;2023-02-01T08:01:15;100466.44;;;6.96;61.44
64086;BME280;50333;47.436;21.390;2023-02-01T08:03:57;100474.37;;;7.06;61.15
64086;BME280;50333;47.436;21.390;2023-02-01T08:06:28;100472.59;;;7.24;61.21
64086;BME280;50333;47.436;21.390;2023-02-01T08:08:57;100461.13;;;7.36;60.49
64086;BME280;50333;47.436;21.390;2023-02-01T08:11:25;100466.22;;;7.48;60.54
64086;BME280;50333;47.436;21.390;2023-02-01T08:13:53;100463.47;;;7.55;60.10
64086;BME280;50333;47.436;21.390;2023-02-01T08:16:22;100469.38;;;7.33;60.52
64086;BME280;50333;47.436;21.390;2023-02-01T08:18:51;100468.72;;;7.60;60.17
64086;BME280;50333;47.436;21.390;2023-02-01T08:21:22;100467.06;;;7.71;60.15
64086;BME280;50333;47.436;21.390;2023-02-01T08:23:51;100457.94;;;8.07;59.14
64086;BME280;50333;47.436;21.390;2023-02-01T08:26:20;100470.84;;;8.02;58.71
64086;BME280;50333;47.436;21.390;2023-02-01T08:28:51;100473.38;;;7.97;58.68
64086;BME280;50333;47.436;21.390;2023-02-01T08:31:21;100482.50;;;8.00;59.02
64086;BME280;50333;47.436;21.390;2023-02-01T08:33:52;100476.09;;;8.07;58.88
64086;BME280;50333;47.436;21.390;2023-02-01T08:36:22;100483.31;;;7.83;59.43
64086;BME280;50333;47.436;21.390;2023-02-01T08:38:50;100483.47;;;8.16;58.69
64086;BME280;50333;47.436;21.390;2023-02-01T08:41:21;100477.56;;;7.98;58.75
64086;BME280;50333;47.436;21.390;2023-02-01T08:43:49;100479.41;;;8.03;58.57
64086;BME280;50333;47.436;21.390;2023-02-01T08:46:17;100479.53;;;8.13;58.33
64086;BME280;50333;47.436;21.390;2023-02-01T08:48:46;100472.69;;;8.46;57.65
64086;BME280;50333;47.436;21.390;2023-02-01T08:51:16;100482.22;;;8.62;57.18
64086;BME280;50333;47.436;21.390;2023-02-01T08:53:44;100485.34;;;8.92;56.36
64086;BME280;50333;47.436;21.390;2023-02-01T08:56:14;100484.72;;;9.06;56.21
64086;BME280;50333;47.436;21.390;2023-02-01T08:58:42;100485.91;;;9.26;55.22
64086;BME280;50333;47.436;21.390;2023-02-01T09:01:14;100481.88;;;9.40;54.17
64086;BME280;50333;47.436;21.390;2023-02-01T09:03:43;100476.81;;;9.66;54.00
64086;BME280;50333;47.436;21.390;2023-02-01T09:06:12;100481.50;;;9.64;53.33
64086;BME280;50333;47.436;21.390;2023-02-01T09:08:41;100480.25;;;9.77;53.39
64086;BME280;50333;47.436;21.390;2023-02-01T09:11:15;100492.16;;;10.10;52.68
64086;BME280;50333;47.436;21.390;2023-02-01T09:13:43;100487.44;;;10.02;52.53
64086;BME280;50333;47.436;21.390;2023-02-01T09:16:11;100488.50;;;10.11;52.44
64086;BME280;50333;47.436;21.390;2023-02-01T09:18:39;100492.09;;;9.95;53.08
64086;BME280;50333;47.436;21.390;2023-02-01T09:21:28;100496.69;;;9.77;53.33
64086;BME280;50333;47.436;21.390;2023-02-01T09:23:56;100494.09;;;9.82;53.74
64086;BME280;50333;47.436;21.390;2023-02-01T09:26:24;100493.47;;;9.65;54.21
64086;BME280;50333;47.436;21.390;2023-02-01T09:29:00;100493.75;;;9.69;54.18
64086;BME280;50333;47.436;21.390;2023-02-01T09:31:27;100497.87;;;9.65;53.50
64086;BME280;50333;47.436;21.390;2023-02-01T09:33:56;100498.00;;;9.85;53.78
64086;BME280;50333;47.436;21.390;2023-02-01T09:36:24;100494.56;;;9.74;53.12
64086;BME280;50333;47.436;21.390;2023-02-01T09:38:52;100500.16;;;9.56;53.54
64086;BME280;50333;47.436;21.390;2023-02-01T09:47:19;100499.97;;;8.98;54.99
64086;BME280;50333;47.436;21.390;2023-02-01T09:50:13;100504.34;;;8.92;55.67
64086;BME280;50333;47.436;21.390;2023-02-01T09:55:20;100497.53;;;8.59;55.50
64086;BME280;50333;47.436;21.390;2023-02-01T09:57:57;100483.66;;;8.53;55.90
64086;BME280;50333;47.436;21.390;2023-02-01T10:00:37;100489.16;;;8.57;56.32
64086;BME280;50333;47.436;21.390;2023-02-01T10:03:11;100492.56;;;8.57;56.45
64086;BME280;50333;47.436;21.390;2023-02-01T10:19:54;100476.12;;;8.29;57.17
64086;BME280;50333;47.436;21.390;2023-02-01T10:22:46;100476.31;;;8.45;56.95
64086;BME280;50333;47.436;21.390;2023-02-01T10:25:49;100475.59;;;8.27;56.44
64086;BME280;50333;47.436;21.390;2023-02-01T10:28:21;100473.41;;;8.19;57.32
64086;BME280;50333;47.436;21.390;2023-02-01T10:30:55;100484.94;;;8.28;57.20
64086;BME280;50333;47.436;21.390;2023-02-01T10:38:36;100490.59;;;8.03;57.66
64086;BME280;50333;47.436;21.390;2023-02-01T10:41:32;100488.31;;;8.07;57.62
64086;BME280;50333;47.436;21.390;2023-02-01T10:44:03;100489.03;;;8.02;57.67
64086;BME280;50333;47.436;21.390;2023-02-01T10:46:33;100498.97;;;7.88;58.12
64086;BME280;50333;47.436;21.390;2023-02-01T10:49:04;100493.22;;;7.86;58.18
64086;BME280;50333;47.436;21.390;2023-02-01T10:52:02;100485.91;;;7.83;58.35
64086;BME280;50333;47.436;21.390;2023-02-01T10:54:35;100487.34;;;7.74;58.47
64086;BME280;50333;47.436;21.390;2023-02-01T10:57:22;100478.09;;;7.61;58.19
64086;BME280;50333;47.436;21.390;2023-02-01T10:59:52;100473.59;;;7.57;59.00
64086;BME280;50333;47.436;21.390;2023-02-01T11:02:34;100466.44;;;7.64;58.91
64086;BME280;50333;47.436;21.390;2023-02-01T11:05:08;100456.06;;;7.64;59.15
64086;BME280;50333;47.436;21.390;2023-02-01T11:07:46;100448.13;;;7.70;59.18
64086;BME280;50333;47.436;21.390;2023-02-01T11:10:35;100435.91;;;7.71;58.99
64086;BME280;50333;47.436;21.390;2023-02-01T11:13:05;100433.69;;;7.58;59.22
64086;BME280;50333;47.436;21.390;2023-02-01T11:15:32;100426.53;;;7.31;60.81
64086;BME280;50333;47.436;21.390;2023-02-01T11:18:15;100419.56;;;7.70;59.88
64086;BME280;50333;47.436;21.390;2023-02-01T11:20:44;100429.03;;;7.60;60.06
64086;BME280;50333;47.436;21.390;2023-02-01T11:23:21;100424.78;;;7.53;59.81
64086;BME280;50333;47.436;21.390;2023-02-01T11:26:02;100417.88;;;7.81;59.57
64086;BME280;50333;47.436;21.390;2023-02-01T11:28:38;100419.53;;;7.87;59.28
64086;BME280;50333;47.436;21.390;2023-02-01T11:31:12;100416.13;;;7.65;59.84
64086;BME280;50333;47.436;21.390;2023-02-01T11:33:47;100412.81;;;7.69;60.00
64086;BME280;50333;47.436;21.390;2023-02-01T11:36:24;100416.13;;;7.65;60.15
64086;BME280;50333;47.436;21.390;2023-02-01T11:41:43;100418.12;;;7.80;59.08
64086;BME280;50333;47.436;21.390;2023-02-01T11:44:38;100414.34;;;7.87;58.86
64086;BME280;50333;47.436;21.390;2023-02-01T11:47:23;100410.53;;;7.95;58.28
64086;BME280;50333;47.436;21.390;2023-02-01T11:49:59;100408.25;;;7.99;58.20
64086;BME280;50333;47.436;21.390;2023-02-01T11:58:12;100392.34;;;7.73;59.99
64086;BME280;50333;47.436;21.390;2023-02-01T12:12:00;100373.47;;;8.00;59.82
64086;BME280;50333;47.436;21.390;2023-02-01T12:14:39;100370.88;;;8.00;60.13
64086;BME280;50333;47.436;21.390;2023-02-01T12:28:30;100361.03;;;8.02;59.86
64086;BME280;50333;47.436;21.390;2023-02-01T12:31:19;100354.31;;;8.06;59.74
64086;BME280;50333;47.436;21.390;2023-02-01T12:33:58;100355.66;;;8.08;59.57
64086;BME280;50333;47.436;21.390;2023-02-01T12:36:53;100344.50;;;8.13;59.48
64086;BME280;50333;47.436;21.390;2023-02-01T12:39:26;100351.69;;;8.28;59.04
64086;BME280;50333;47.436;21.390;2023-02-01T12:42:29;100350.88;;;8.00;59.22
64086;BME280;50333;47.436;21.390;2023-02-01T12:47:42;100345.31;;;8.14;59.09
64086;BME280;50333;47.436;21.390;2023-02-01T12:50:18;100346.19;;;8.24;58.15
64086;BME280;50333;47.436;21.390;2023-02-01T12:52:54;100345.63;;;8.17;57.56
64086;BME280;50333;47.436;21.390;2023-02-01T12:55:48;100348.06;;;8.29;57.49
64086;BME280;50333;47.436;21.390;2023-02-01T12:58:30;100348.87;;;8.07;57.56
64086;BME280;50333;47.436;21.390;2023-02-01T13:01:03;100348.28;;;7.78;58.48
64086;BME280;50333;47.436;21.390;2023-02-01T13:03:50;100348.53;;;7.77;59.14
64086;BME280;50333;47.436;21.390;2023-02-01T13:06:28;100343.06;;;8.22;57.93
64086;BME280;50333;47.436;21.390;2023-02-01T13:09:04;100343.38;;;8.04;58.26
64086;BME280;50333;47.436;21.390;2023-02-01T13:11:36;100337.78;;;8.12;57.50
64086;BME280;50333;47.436;21.390;2023-02-01T13:17:10;100334.63;;;8.10;58.41
64086;BME280;50333;47.436;21.390;2023-02-01T13:22:46;100335.09;;;8.34;58.33
64086;BME280;50333;47.436;21.390;2023-02-01T13:28:00;100331.53;;;8.13;57.97
64086;BME280;50333;47.436;21.390;2023-02-01T13:31:01;100317.63;;;8.24;57.59
64086;BME280;50333;47.436;21.390;2023-02-01T13:42:15;100322.84;;;8.57;56.11
64086;BME280;50333;47.436;21.390;2023-02-01T13:44:48;100314.78;;;8.53;55.91
64086;BME280;50333;47.436;21.390;2023-02-01T13:49:56;100308.00;;;8.47;54.55
64086;BME280;50333;47.436;21.390;2023-02-01T13:52:29;100302.59;;;8.54;53.81
64086;BME280;50333;47.436;21.390;2023-02-01T13:55:27;100302.81;;;8.25;53.94
64086;BME280;50333;47.436;21.390;2023-02-01T13:58:06;100305.41;;;8.25;54.84
64086;BME280;50333;47.436;21.390;2023-02-01T14:00:38;100302.25;;;8.45;54.34
64086;BME280;50333;47.436;21.390;2023-02-01T14:03:13;100300.59;;;8.39;54.82
64086;BME280;50333;47.436;21.390;2023-02-01T14:08:43;100297.47;;;8.37;55.09
64086;BME280;50333;47.436;21.390;2023-02-01T14:16:44;100315.78;;;7.70;55.83
64086;BME280;50333;47.436;21.390;2023-02-01T14:19:33;100311.63;;;8.19;54.94
64086;BME280;50333;47.436;21.390;2023-02-01T14:24:53;100307.00;;;7.99;55.74
64086;BME280;50333;47.436;21.390;2023-02-01T14:27:25;100303.50;;;7.88;56.46
64086;BME280;50333;47.436;21.390;2023-02-01T14:29:59;100307.28;;;7.75;57.56
64086;BME280;50333;47.436;21.390;2023-02-01T14:32:34;100310.72;;;7.81;57.89
64086;BME280;50333;47.436;21.390;2023-02-01T14:35:20;100309.88;;;7.53;60.21
64086;BME280;50333;47.436;21.390;2023-02-01T14:37:58;100323.84;;;7.52;61.75
64086;BME280;50333;47.436;21.390;2023-02-01T14:40:28;100324.25;;;7.22;63.41
64086;BME280;50333;47.436;21.390;2023-02-01T14:42:56;100321.28;;;7.13;64.17
64086;BME280;50333;47.436;21.390;2023-02-01T14:50:33;100337.31;;;6.93;66.98
64086;BME280;50333;47.436;21.390;2023-02-01T14:58:50;100337.75;;;6.22;71.08
64086;BME280;50333;47.436;21.390;2023-02-01T15:01:38;100348.00;;;6.17;71.95
64086;BME280;50333;47.436;21.390;2023-02-01T15:04:17;100354.09;;;6.11;72.41
64086;BME280;50333;47.436;21.390;2023-02-01T15:09:46;100351.75;;;5.97;72.97
64086;BME280;50333;47.436;21.390;2023-02-01T15:12:17;100357.62;;;6.04;72.02
64086;BME280;50333;47.436;21.390;2023-02-01T15:17:31;100363.69;;;5.98;74.03
64086;BME280;50333;47.436;21.390;2023-02-01T15:20:25;100363.97;;;5.61;75.62
64086;BME280;50333;47.436;21.390;2023-02-01T15:23:05;100355.87;;;5.70;75.85
64086;BME280;50333;47.436;21.390;2023-02-01T15:25:37;100362.16;;;5.74;75.68
64086;BME280;50333;47.436;21.390;2023-02-01T15:28:13;100357.22;;;5.72;75.67
64086;BME280;50333;47.436;21.390;2023-02-01T15:30:56;100361.16;;;5.51;75.58
64086;BME280;50333;47.436;21.390;2023-02-01T15:33:25;100364.62;;;5.80;75.25
64086;BME280;50333;47.436;21.390;2023-02-01T15:38:37;100357.59;;;5.28;77.00
64086;BME280;50333;47.436;21.390;2023-02-01T15:41:19;100354.19;;;5.63;75.64
64086;BME280;50333;47.436;21.390;2023-02-01T15:46:34;100353.28;;;5.70;75.33
64086;BME280;50333;47.436;21.390;2023-02-01T15:49:03;100354.28;;;5.69;75.39
64086;BME280;50333;47.436;21.390;2023-02-01T15:51:32;100355.37;;;5.84;74.91
64086;BME280;50333;47.436;21.390;2023-02-01T15:54:07;100362.03;;;5.80;75.37